createdAt,value
2022-09-20T00:01:21.713Z,2.92
2022-09-20T00:08:00.858Z,2.92
2022-09-20T00:13:06.866Z,2.92
2022-09-20T00:18:15.243Z,2.92
2022-09-20T00:23:23.383Z,2.92
2022-09-20T00:28:30.914Z,2.93
2022-09-20T00:33:39.467Z,2.92
2022-09-20T00:38:46.667Z,2.92
2022-09-20T00:43:54.551Z,2.93
2022-09-20T00:49:01.754Z,2.94
2022-09-20T00:54:10.578Z,2.93
2022-09-20T00:59:18.330Z,2.93
2022-09-20T01:04:25.805Z,2.93
2022-09-20T01:09:33.156Z,2.94
2022-09-20T01:14:40.932Z,2.92
2022-09-20T01:19:48.104Z,2.92
2022-09-20T01:24:56.367Z,2.92
2022-09-20T01:30:03.150Z,2.92
2022-09-20T01:35:10.914Z,2.94
2022-09-20T01:40:18.274Z,2.93
2022-09-20T01:45:26.238Z,2.93
2022-09-20T01:50:34.086Z,2.93
2022-09-20T01:55:41.703Z,2.93
2022-09-20T02:00:49.933Z,2.93
2022-09-20T02:05:58.005Z,2.92
2022-09-20T02:11:05.710Z,2.93
2022-09-20T02:16:14.712Z,2.93
2022-09-20T02:21:22.147Z,2.92
2022-09-20T02:26:30.461Z,2.93
2022-09-20T02:31:40.224Z,2.94
2022-09-20T02:36:48.656Z,2.92
2022-09-20T02:41:56.918Z,2.92
2022-09-20T02:47:03.955Z,2.92
2022-09-20T02:52:13.502Z,2.92
2022-09-20T02:57:20.831Z,2.93
2022-09-20T03:02:28.106Z,2.91
2022-09-20T03:07:35.445Z,2.94
2022-09-20T03:12:44.155Z,2.92
2022-09-20T03:17:53.019Z,2.94
2022-09-20T03:23:01.175Z,2.93
2022-09-20T03:28:08.588Z,2.92
2022-09-20T03:33:16.489Z,2.92
2022-09-20T03:38:22.980Z,2.93
2022-09-20T03:43:30.834Z,2.92
2022-09-20T03:48:38.195Z,2.92
2022-09-20T03:53:45.861Z,2.94
2022-09-20T03:58:53.782Z,2.92
2022-09-20T04:04:01.660Z,2.92
2022-09-20T04:09:08.942Z,2.91
2022-09-20T04:14:17.255Z,2.92
2022-09-20T04:19:24.478Z,2.93
2022-09-20T04:24:31.853Z,2.94
2022-09-20T04:29:40.702Z,2.94
2022-09-20T04:34:49.747Z,2.93
2022-09-20T04:39:57.571Z,2.93
2022-09-20T04:45:06.279Z,2.92
2022-09-20T04:50:14.872Z,2.93
2022-09-20T04:55:21.863Z,2.92
2022-09-20T05:00:29.054Z,2.93
2022-09-20T05:05:36.263Z,2.92
2022-09-20T05:10:44.498Z,2.94
2022-09-20T05:15:52.502Z,2.93
2022-09-20T05:21:03.128Z,2.93
2022-09-20T05:26:11.350Z,2.94
2022-09-20T05:31:19.193Z,2.94
2022-09-20T05:36:27.177Z,2.93
2022-09-20T05:41:35.890Z,2.94
2022-09-20T05:46:44.357Z,2.94
2022-09-20T05:51:51.889Z,2.93
2022-09-20T05:57:00.996Z,2.95
2022-09-20T06:02:08.589Z,2.92
2022-09-20T06:07:18.541Z,2.94
2022-09-20T06:12:31.675Z,2.94
2022-09-20T06:17:39.977Z,2.93
2022-09-20T06:22:47.303Z,2.93
2022-09-20T06:27:55.347Z,2.95
2022-09-20T06:33:03.235Z,2.94
2022-09-20T06:38:11.693Z,2.94
2022-09-20T06:43:19.847Z,2.95
2022-09-20T06:48:28.219Z,2.94
2022-09-20T06:53:35.661Z,2.94
2022-09-20T06:58:44.054Z,2.94
2022-09-20T07:03:51.961Z,2.95
2022-09-20T07:08:58.831Z,2.94
2022-09-20T07:14:07.561Z,2.94
2022-09-20T07:19:14.841Z,2.94
2022-09-20T07:24:23.115Z,2.94
2022-09-20T07:29:30.559Z,2.95
2022-09-20T07:34:38.666Z,2.95
2022-09-20T07:39:46.687Z,2.95
2022-09-20T07:44:54.798Z,2.94
2022-09-20T07:50:02.005Z,2.95
2022-09-20T07:55:09.119Z,2.95
2022-09-20T08:00:16.985Z,2.96
2022-09-20T08:05:26.148Z,2.96
2022-09-20T08:10:33.267Z,2.97
2022-09-20T08:15:41.642Z,2.97
2022-09-20T08:20:49.151Z,2.96
2022-09-20T08:25:56.110Z,2.96
2022-09-20T08:31:10.038Z,2.96
2022-09-20T08:36:16.906Z,2.96
2022-09-20T08:41:25.247Z,2.95
2022-09-20T08:46:32.573Z,2.96
2022-09-20T08:51:40.912Z,2.96
2022-09-20T08:56:47.672Z,2.96
2022-09-20T09:01:56.818Z,2.97
2022-09-20T09:07:04.597Z,2.97
2022-09-20T09:12:11.431Z,2.97
2022-09-20T09:17:18.603Z,2.97
2022-09-20T09:22:26.190Z,2.97
2022-09-20T09:32:44.556Z,2.97
2022-09-20T09:37:52.424Z,2.97
2022-09-20T09:43:03.105Z,2.97
2022-09-20T09:48:10.616Z,2.98
2022-09-20T09:53:18.780Z,2.98
2022-09-20T09:58:27.017Z,2.97
2022-09-20T10:03:33.977Z,2.97
2022-09-20T10:08:42.378Z,2.98
2022-09-20T10:13:49.079Z,2.98
2022-09-20T10:18:56.249Z,2.97
2022-09-20T10:24:04.048Z,2.97
2022-09-20T10:29:11.299Z,2.96
2022-09-20T10:34:19.144Z,2.96
2022-09-20T10:39:26.420Z,2.96
2022-09-20T10:44:34.220Z,2.96
2022-09-20T10:49:41.417Z,2.95
2022-09-20T10:54:49.867Z,2.97
2022-09-20T10:59:57.063Z,2.98
2022-09-20T11:05:04.185Z,2.97
2022-09-20T11:10:11.777Z,2.97
2022-09-20T11:15:21.088Z,2.97
2022-09-20T11:20:27.178Z,2.98
2022-09-20T11:25:36.145Z,2.97
2022-09-20T11:30:43.451Z,2.97
2022-09-20T11:35:50.625Z,2.98
2022-09-20T11:40:58.331Z,2.97
2022-09-20T11:46:06.322Z,2.96
2022-09-20T11:51:15.322Z,2.96
2022-09-20T11:56:21.879Z,2.96
2022-09-20T12:01:29.332Z,2.96
2022-09-20T12:06:36.427Z,2.96
2022-09-20T12:11:44.394Z,2.96
2022-09-20T12:16:50.818Z,2.95
2022-09-20T12:21:59.166Z,2.96
2022-09-20T12:27:06.002Z,2.97
2022-09-20T12:32:14.255Z,2.95
2022-09-20T12:37:21.539Z,2.97
2022-09-20T12:42:28.738Z,2.97
2022-09-20T12:47:35.904Z,2.96
2022-09-20T12:52:44.247Z,2.96
2022-09-20T12:57:52.014Z,2.96
2022-09-20T13:02:58.867Z,2.96
2022-09-20T13:08:05.386Z,2.95
2022-09-20T13:13:12.761Z,2.95
2022-09-20T13:18:20.466Z,2.95
2022-09-20T13:23:27.670Z,2.96
2022-09-20T13:28:36.489Z,2.95
2022-09-20T13:33:44.452Z,2.95
2022-09-20T13:38:51.782Z,2.95
2022-09-20T13:44:00.156Z,2.96
2022-09-20T13:49:07.458Z,2.95
2022-09-20T13:54:16.050Z,2.95
2022-09-20T13:59:23.187Z,2.94
2022-09-20T14:04:31.031Z,2.96
2022-09-20T14:09:38.235Z,2.95
2022-09-20T14:14:46.520Z,2.95
2022-09-20T14:19:53.216Z,2.96
2022-09-20T14:25:00.419Z,2.95
2022-09-20T14:30:07.618Z,2.95
2022-09-20T14:35:56.447Z,2.96
2022-09-20T14:41:04.905Z,2.95
2022-09-20T14:46:11.460Z,2.95
2022-09-20T14:51:19.946Z,2.95
2022-09-20T14:56:41.856Z,2.96
2022-09-20T15:01:49.920Z,2.95
2022-09-20T15:06:57.550Z,2.95
2022-09-20T15:12:04.884Z,2.96
2022-09-20T15:17:13.057Z,2.95
2022-09-20T15:22:19.824Z,2.96
2022-09-20T15:27:28.824Z,2.95
2022-09-20T15:32:36.355Z,2.95
2022-09-20T15:37:44.241Z,2.94
2022-09-20T15:42:51.375Z,2.95
2022-09-20T15:47:58.332Z,2.94
2022-09-20T15:53:05.466Z,2.94
2022-09-20T15:58:12.680Z,2.94
2022-09-20T16:03:20.657Z,2.92
2022-09-20T16:08:27.785Z,2.95
2022-09-20T16:13:34.975Z,2.94
2022-09-20T16:18:42.553Z,2.94
2022-09-20T16:23:50.605Z,2.94
2022-09-20T16:28:58.935Z,2.95
2022-09-20T16:34:06.856Z,2.94
2022-09-20T16:39:15.288Z,2.94
2022-09-20T16:45:01.767Z,2.94
2022-09-20T16:50:08.953Z,2.93
2022-09-20T16:55:16.154Z,2.92
2022-09-20T17:00:24.915Z,2.92
2022-09-20T17:05:31.839Z,2.93
2022-09-20T17:30:32.820Z,2.92
2022-09-20T17:35:37.921Z,2.93
2022-09-20T17:40:46.347Z,2.92
2022-09-20T17:45:53.546Z,2.94
2022-09-20T17:51:00.835Z,2.93
2022-09-20T17:56:09.152Z,2.91
2022-09-20T18:01:17.066Z,2.93
2022-09-20T18:06:25.594Z,2.93
2022-09-20T18:11:32.800Z,2.93
2022-09-20T18:16:40.576Z,2.92
2022-09-20T18:21:52.210Z,2.94
2022-09-20T18:27:00.888Z,2.92
2022-09-20T18:32:08.522Z,2.92
2022-09-20T18:37:16.664Z,2.93
2022-09-20T18:42:23.620Z,2.91
2022-09-20T18:47:32.632Z,2.94
2022-09-20T18:52:40.227Z,2.93
2022-09-20T18:57:47.144Z,2.93
2022-09-20T19:02:54.826Z,2.92
2022-09-20T19:08:02.131Z,2.93
2022-09-20T19:13:10.656Z,2.93
2022-09-20T19:18:18.439Z,2.91
2022-09-20T19:23:25.696Z,2.92
2022-09-20T19:28:32.896Z,2.93
2022-09-20T19:33:40.252Z,2.92
2022-09-20T19:38:48.158Z,2.92
2022-09-20T19:43:56.267Z,2.92
2022-09-20T19:49:03.622Z,2.92
2022-09-20T19:54:11.646Z,2.92
2022-09-20T19:59:18.029Z,2.92
2022-09-20T20:04:26.936Z,2.92
2022-09-20T20:09:35.369Z,2.92
2022-09-20T20:14:43.217Z,2.92
2022-09-20T20:19:51.317Z,2.92
2022-09-20T20:24:59.108Z,2.92
2022-09-20T20:30:05.706Z,2.94
2022-09-20T20:35:13.672Z,2.92
2022-09-20T20:40:21.383Z,2.93
2022-09-20T20:45:29.624Z,2.92
2022-09-20T20:50:36.470Z,2.93
2022-09-20T20:55:44.311Z,2.91
2022-09-20T21:00:52.024Z,2.93
2022-09-20T21:06:00.193Z,2.92
2022-09-20T21:11:08.291Z,2.93
2022-09-20T21:16:15.605Z,2.93
2022-09-20T21:21:24.636Z,2.92
2022-09-20T21:26:32.999Z,2.92
2022-09-20T21:31:41.266Z,2.91
2022-09-20T21:36:49.342Z,2.92
2022-09-20T21:41:57.488Z,2.91
2022-09-20T21:47:05.736Z,2.92
2022-09-20T21:52:13.910Z,2.92
2022-09-20T21:57:21.747Z,2.91
2022-09-20T22:02:33.270Z,2.92
2022-09-20T22:07:40.470Z,2.91
2022-09-20T22:12:48.099Z,2.92
2022-09-20T22:17:56.029Z,2.93
2022-09-20T22:23:04.133Z,2.94
2022-09-20T22:28:10.495Z,2.92
2022-09-20T22:33:20.024Z,2.92
2022-09-20T22:38:27.456Z,2.93
2022-09-20T22:43:35.287Z,2.92
2022-09-20T22:48:43.186Z,2.92
2022-09-20T22:53:50.416Z,2.92
2022-09-20T22:58:58.427Z,2.92
2022-09-20T23:04:06.134Z,2.92
2022-09-20T23:09:14.682Z,2.92
2022-09-20T23:14:22.887Z,2.92
2022-09-20T23:19:29.550Z,2.92
2022-09-20T23:24:37.423Z,2.92
2022-09-20T23:29:43.946Z,2.92
2022-09-20T23:34:51.739Z,2.91
2022-09-20T23:39:59.664Z,2.92
2022-09-20T23:45:07.659Z,2.91
2022-09-20T23:50:16.451Z,2.91
2022-09-20T23:55:24.927Z,2.92
